sensor_id;sensor_type;location;lat;lon;timestamp;pressure;altitude;pressure_sealevel;temperature;humidity
55077;BME280;40971;44.702;11.030;2023-03-14T00:08:36;100792.34;;;9.42;86.86
55077;BME280;40971;44.702;11.030;2023-03-14T00:18:38;100784.94;;;9.38;86.83
55077;BME280;40971;44.702;11.030;2023-03-14T00:28:42;100757.06;;;9.19;87.11
55077;BME280;40971;44.702;11.030;2023-03-14T00:38:47;100707.50;;;9.08;88.12
55077;BME280;40971;44.702;11.030;2023-03-14T00:48:50;100678.91;;;8.97;89.49
55077;BME280;40971;44.702;11.030;2023-03-14T00:58:55;100663.41;;;9.03;89.72
55077;BME280;40971;44.702;11.030;2023-03-14T01:08:59;100602.22;;;8.95;90.28
55077;BME280;40971;44.702;11.030;2023-03-14T01:19:02;100563.25;;;9.00;90.09
55077;BME280;40971;44.702;11.030;2023-03-14T01:29:05;100533.94;;;9.04;90.09
55077;BME280;40971;44.702;11.030;2023-03-14T01:39:07;100545.59;;;9.10;89.40
55077;BME280;40971;44.702;11.030;2023-03-14T01:49:19;100532.72;;;8.91;88.97
55077;BME280;40971;44.702;11.030;2023-03-14T01:59:22;100522.78;;;8.68;89.57
55077;BME280;40971;44.702;11.030;2023-03-14T02:09:25;100497.41;;;8.43;90.35
55077;BME280;40971;44.702;11.030;2023-03-14T02:20:01;100471.34;;;8.34;90.48
55077;BME280;40971;44.702;11.030;2023-03-14T02:30:16;100453.44;;;8.03;90.18
55077;BME280;40971;44.702;11.030;2023-03-14T02:40:19;100455.09;;;8.30;91.21
55077;BME280;40971;44.702;11.030;2023-03-14T02:50:26;100457.34;;;8.25;90.61
55077;BME280;40971;44.702;11.030;2023-03-14T03:00:30;100482.66;;;8.34;90.48
55077;BME280;40971;44.702;11.030;2023-03-14T03:10:33;100433.81;;;8.59;90.51
55077;BME280;40971;44.702;11.030;2023-03-14T03:20:38;100410.91;;;8.61;90.24
55077;BME280;40971;44.702;11.030;2023-03-14T03:30:42;100390.13;;;8.67;90.00
55077;BME280;40971;44.702;11.030;2023-03-14T03:40:45;100367.00;;;8.63;89.09
55077;BME280;40971;44.702;11.030;2023-03-14T03:50:47;100361.31;;;8.75;87.99
55077;BME280;40971;44.702;11.030;2023-03-14T04:00:49;100367.44;;;8.42;87.21
55077;BME280;40971;44.702;11.030;2023-03-14T04:10:55;100334.69;;;7.79;88.97
55077;BME280;40971;44.702;11.030;2023-03-14T04:20:57;100248.22;;;7.03;90.48
55077;BME280;40971;44.702;11.030;2023-03-14T04:31:06;100243.47;;;7.07;89.89
55077;BME280;40971;44.702;11.030;2023-03-14T04:41:09;100226.06;;;7.15;89.36
55077;BME280;40971;44.702;11.030;2023-03-14T04:51:12;100225.06;;;6.73;89.45
55077;BME280;40971;44.702;11.030;2023-03-14T05:01:15;100231.28;;;6.89;89.38
55077;BME280;40971;44.702;11.030;2023-03-14T05:11:17;100214.34;;;6.58;88.66
55077;BME280;40971;44.702;11.030;2023-03-14T05:21:19;100131.16;;;6.63;88.61
55077;BME280;40971;44.702;11.030;2023-03-14T05:31:21;100075.69;;;6.95;91.01
55077;BME280;40971;44.702;11.030;2023-03-14T05:41:25;100168.13;;;7.53;88.11
55077;BME280;40971;44.702;11.030;2023-03-14T05:51:27;100190.78;;;7.79;87.17
55077;BME280;40971;44.702;11.030;2023-03-14T06:01:29;100195.91;;;8.04;84.51
55077;BME280;40971;44.702;11.030;2023-03-14T06:11:32;100212.00;;;9.47;82.56
55077;BME280;40971;44.702;11.030;2023-03-14T06:21:35;100224.06;;;10.11;81.00
55077;BME280;40971;44.702;11.030;2023-03-14T06:31:37;100226.16;;;10.54;79.78
55077;BME280;40971;44.702;11.030;2023-03-14T06:41:39;100219.53;;;10.35;81.17
55077;BME280;40971;44.702;11.030;2023-03-14T06:51:40;100226.16;;;10.77;79.19
55077;BME280;40971;44.702;11.030;2023-03-14T07:01:44;100211.06;;;10.93;78.46
55077;BME280;40971;44.702;11.030;2023-03-14T07:11:46;100206.38;;;10.81;78.66
55077;BME280;40971;44.702;11.030;2023-03-14T07:21:48;100225.28;;;11.22;77.50
55077;BME280;40971;44.702;11.030;2023-03-14T07:31:50;100250.91;;;12.01;77.31
55077;BME280;40971;44.702;11.030;2023-03-14T07:41:51;100231.69;;;12.57;74.11
55077;BME280;40971;44.702;11.030;2023-03-14T07:51:56;100243.56;;;12.47;74.50
55077;BME280;40971;44.702;11.030;2023-03-14T08:01:59;100223.56;;;12.16;75.04
55077;BME280;40971;44.702;11.030;2023-03-14T08:12:02;100203.16;;;11.60;76.66
55077;BME280;40971;44.702;11.030;2023-03-14T08:22:04;100199.59;;;11.38;78.24
55077;BME280;40971;44.702;11.030;2023-03-14T08:32:06;100188.03;;;12.97;74.53
55077;BME280;40971;44.702;11.030;2023-03-14T08:42:08;100179.22;;;15.19;66.24
55077;BME280;40971;44.702;11.030;2023-03-14T08:52:11;100176.50;;;16.16;61.30
55077;BME280;40971;44.702;11.030;2023-03-14T09:02:15;100178.13;;;16.55;59.90
55077;BME280;40971;44.702;11.030;2023-03-14T09:12:17;100202.03;;;16.42;60.27
55077;BME280;40971;44.702;11.030;2023-03-14T09:22:18;100169.19;;;17.41;58.04
55077;BME280;40971;44.702;11.030;2023-03-14T09:32:21;100170.00;;;17.78;57.53
55077;BME280;40971;44.702;11.030;2023-03-14T09:42:26;100163.13;;;16.92;59.25
55077;BME280;40971;44.702;11.030;2023-03-14T09:52:32;100153.84;;;17.80;55.66
55077;BME280;40971;44.702;11.030;2023-03-14T10:02:35;100150.94;;;17.45;53.84
55077;BME280;40971;44.702;11.030;2023-03-14T10:12:37;100144.47;;;17.41;54.61
55077;BME280;40971;44.702;11.030;2023-03-14T10:22:39;100139.56;;;17.20;53.33
55077;BME280;40971;44.702;11.030;2023-03-14T10:32:45;100137.50;;;17.22;56.46
55077;BME280;40971;44.702;11.030;2023-03-14T10:42:48;100126.25;;;17.63;57.57
55077;BME280;40971;44.702;11.030;2023-03-14T10:52:54;100141.00;;;16.98;58.57
55077;BME280;40971;44.702;11.030;2023-03-14T11:03:12;100149.06;;;16.66;62.25
55077;BME280;40971;44.702;11.030;2023-03-14T11:13:32;100123.75;;;16.01;64.91
55077;BME280;40971;44.702;11.030;2023-03-14T11:33:56;100106.25;;;15.94;67.93
55077;BME280;40971;44.702;11.030;2023-03-14T11:44:03;100080.69;;;16.62;66.30
55077;BME280;40971;44.702;11.030;2023-03-14T12:15:05;100047.75;;;16.69;62.68
55077;BME280;40971;44.702;11.030;2023-03-14T12:35:33;100030.94;;;17.30;57.52
55077;BME280;40971;44.702;11.030;2023-03-14T12:45:36;100028.22;;;17.00;59.70
55077;BME280;40971;44.702;11.030;2023-03-14T13:06:02;100006.53;;;17.03;61.41
55077;BME280;40971;44.702;11.030;2023-03-14T13:16:06;100009.09;;;16.55;64.30
55077;BME280;40971;44.702;11.030;2023-03-14T13:26:14;100009.69;;;17.12;62.17
55077;BME280;40971;44.702;11.030;2023-03-14T13:36:22;100010.66;;;17.35;60.78
55077;BME280;40971;44.702;11.030;2023-03-14T13:46:24;100016.56;;;17.01;60.38
55077;BME280;40971;44.702;11.030;2023-03-14T13:56:28;100010.59;;;16.69;59.94
55077;BME280;40971;44.702;11.030;2023-03-14T14:06:44;100010.75;;;16.74;60.98
55077;BME280;40971;44.702;11.030;2023-03-14T14:16:49;100010.09;;;17.63;57.78
55077;BME280;40971;44.702;11.030;2023-03-14T14:26:53;99992.06;;;18.41;54.30
55077;BME280;40971;44.702;11.030;2023-03-14T14:36:56;99996.50;;;18.59;53.55
55077;BME280;40971;44.702;11.030;2023-03-14T14:46:58;99976.69;;;17.56;57.44
55077;BME280;40971;44.702;11.030;2023-03-14T14:57:04;99965.84;;;18.96;52.67
55077;BME280;40971;44.702;11.030;2023-03-14T15:07:08;99963.34;;;18.20;53.20
55077;BME280;40971;44.702;11.030;2023-03-14T15:17:11;99936.50;;;17.45;54.89
55077;BME280;40971;44.702;11.030;2023-03-14T15:27:15;99942.97;;;17.08;56.43
55077;BME280;40971;44.702;11.030;2023-03-14T15:37:18;99923.63;;;17.31;55.21
55077;BME280;40971;44.702;11.030;2023-03-14T15:47:19;99934.44;;;17.18;55.56
55077;BME280;40971;44.702;11.030;2023-03-14T15:57:22;99924.56;;;17.07;56.22
55077;BME280;40971;44.702;11.030;2023-03-14T16:07:26;99917.75;;;16.81;57.17
55077;BME280;40971;44.702;11.030;2023-03-14T16:17:29;99908.81;;;16.75;56.11
55077;BME280;40971;44.702;11.030;2023-03-14T16:27:33;99915.94;;;16.20;57.61
55077;BME280;40971;44.702;11.030;2023-03-14T16:37:36;99898.75;;;15.80;59.33
55077;BME280;40971;44.702;11.030;2023-03-14T16:47:37;99918.19;;;15.49;61.12
55077;BME280;40971;44.702;11.030;2023-03-14T16:57:39;99930.69;;;15.29;60.69
55077;BME280;40971;44.702;11.030;2023-03-14T17:07:41;99934.78;;;14.81;61.76
55077;BME280;40971;44.702;11.030;2023-03-14T17:17:43;99949.94;;;14.41;62.82
55077;BME280;40971;44.702;11.030;2023-03-14T17:27:44;99970.88;;;14.29;63.89
55077;BME280;40971;44.702;11.030;2023-03-14T17:37:46;99986.56;;;14.31;63.87
55077;BME280;40971;44.702;11.030;2023-03-14T17:47:47;100004.84;;;13.99;65.29
55077;BME280;40971;44.702;11.030;2023-03-14T17:57:49;100019.66;;;13.87;67.16
55077;BME280;40971;44.702;11.030;2023-03-14T18:07:53;100024.78;;;13.95;67.42
55077;BME280;40971;44.702;11.030;2023-03-14T18:18:01;100042.88;;;14.05;67.46
55077;BME280;40971;44.702;11.030;2023-03-14T18:28:03;100056.28;;;14.10;67.57
55077;BME280;40971;44.702;11.030;2023-03-14T18:38:05;100065.06;;;14.04;68.01
55077;BME280;40971;44.702;11.030;2023-03-14T18:48:07;100082.22;;;13.67;69.61
55077;BME280;40971;44.702;11.030;2023-03-14T18:58:08;100091.47;;;13.43;75.41
55077;BME280;40971;44.702;11.030;2023-03-14T19:08:10;100094.44;;;13.27;76.11
55077;BME280;40971;44.702;11.030;2023-03-14T19:18:16;100112.66;;;12.88;81.86
55077;BME280;40971;44.702;11.030;2023-03-14T19:28:19;100110.75;;;12.75;81.95
55077;BME280;40971;44.702;11.030;2023-03-14T19:38:22;100110.63;;;12.62;81.58
55077;BME280;40971;44.702;11.030;2023-03-14T19:48:26;100107.75;;;12.57;82.22
55077;BME280;40971;44.702;11.030;2023-03-14T19:58:31;100120.53;;;12.33;83.51
55077;BME280;40971;44.702;11.030;2023-03-14T20:08:34;100130.16;;;12.04;84.16
55077;BME280;40971;44.702;11.030;2023-03-14T20:18:37;100132.59;;;11.85;83.76
55077;BME280;40971;44.702;11.030;2023-03-14T20:28:45;100127.50;;;11.68;83.76
55077;BME280;40971;44.702;11.030;2023-03-14T20:38:48;100122.72;;;11.43;84.31
55077;BME280;40971;44.702;11.030;2023-03-14T20:48:54;100135.09;;;11.13;83.04
55077;BME280;40971;44.702;11.030;2023-03-14T20:58:58;100156.88;;;11.22;85.80
55077;BME280;40971;44.702;11.030;2023-03-14T21:08:59;100167.19;;;11.38;85.47
55077;BME280;40971;44.702;11.030;2023-03-14T21:19:06;100180.53;;;11.36;84.35
55077;BME280;40971;44.702;11.030;2023-03-14T21:29:09;100179.38;;;11.39;84.77
55077;BME280;40971;44.702;11.030;2023-03-14T21:39:12;100190.44;;;11.49;85.04
55077;BME280;40971;44.702;11.030;2023-03-14T21:49:16;100196.88;;;11.61;84.93
55077;BME280;40971;44.702;11.030;2023-03-14T21:59:19;100199.06;;;11.43;84.84
55077;BME280;40971;44.702;11.030;2023-03-14T22:09:25;100212.56;;;11.40;85.64
55077;BME280;40971;44.702;11.030;2023-03-14T22:19:30;100187.06;;;11.40;86.62
55077;BME280;40971;44.702;11.030;2023-03-14T22:29:33;100199.69;;;11.45;86.40
55077;BME280;40971;44.702;11.030;2023-03-14T22:39:39;100194.53;;;11.51;86.07
55077;BME280;40971;44.702;11.030;2023-03-14T22:49:41;100172.00;;;11.34;86.25
55077;BME280;40971;44.702;11.030;2023-03-14T22:59:43;100190.25;;;11.50;85.46
55077;BME280;40971;44.702;11.030;2023-03-14T23:09:46;100185.06;;;11.42;85.36
55077;BME280;40971;44.702;11.030;2023-03-14T23:19:48;100199.69;;;11.45;85.46
55077;BME280;40971;44.702;11.030;2023-03-14T23:29:51;100193.88;;;11.35;85.77
55077;BME280;40971;44.702;11.030;2023-03-14T23:39:53;100222.91;;;11.27;85.20
55077;BME280;40971;44.702;11.030;2023-03-14T23:49:56;100234.69;;;11.16;85.14
55077;BME280;40971;44.702;11.030;2023-03-14T23:59:59;100241.31;;;10.89;85.22
